Time;durP1;ratioP1;P1;durP2;ratioP2;P2;SDS_P1;SDS_P2;PMS_P1;PMS_P2;Temp;Humidity;BMP_temperature;BMP_pressure;BME280_temperature;BME280_humidity;BME280_pressure;Samples;Min_cycle;Max_cycle;Signal;HPM_P1;HPM_P2
2021/09/06 00:02:20;;;;;;;8.00;7.30;;;13.80;99.90;;;;;;4938411;28;20199;-86
2021/09/06 00:04:46;;;;;;;8.27;7.53;;;13.60;99.90;;;;;;4933163;28;20459;-85
2021/09/06 00:07:12;;;;;;;7.80;7.00;;;13.50;99.90;;;;;;4927786;28;20860;-85
2021/09/06 00:09:39;;;;;;;8.60;7.90;;;13.50;99.90;;;;;;4933474;28;20191;-86
2021/09/06 00:12:05;;;;;;;9.23;8.30;;;13.50;99.90;;;;;;4936141;28;20482;-86
2021/09/06 00:14:31;;;;;;;8.43;7.50;;;13.50;99.90;;;;;;4935498;28;20817;-86
2021/09/06 00:17:00;;;;;;;7.90;7.20;;;13.50;99.90;;;;;;4951872;28;20453;-85
2021/09/06 00:19:26;;;;;;;8.00;7.30;;;13.50;99.90;;;;;;4952018;28;20471;-85
2021/09/06 00:21:52;;;;;;;7.97;7.23;;;13.50;99.90;;;;;;4953362;28;20462;-85
2021/09/06 00:24:18;;;;;;;8.37;7.60;;;13.50;99.90;;;;;;4930299;28;20203;-85
2021/09/06 00:26:47;;;;;;;8.20;7.47;;;13.50;99.90;;;;;;4932052;28;21048;-85
2021/09/06 00:29:13;;;;;;;7.43;6.73;;;13.30;99.90;;;;;;4954012;28;20465;-85
2021/09/06 00:31:39;;;;;;;7.80;7.10;;;13.30;99.90;;;;;;4936612;28;20882;-85
2021/09/06 00:34:05;;;;;;;7.27;6.63;;;13.30;99.90;;;;;;4935106;28;20541;-85
2021/09/06 00:36:31;;;;;;;9.10;7.80;;;13.30;99.90;;;;;;4948715;28;20202;-85
2021/09/06 00:38:56;;;;;;;8.23;7.43;;;13.30;99.90;;;;;;4950443;28;20442;-85
2021/09/06 00:41:24;;;;;;;8.23;7.23;;;13.30;99.90;;;;;;4932429;28;20218;-85
2021/09/06 00:43:51;;;;;;;7.93;7.33;;;13.30;99.90;;;;;;4934185;28;20195;-85
2021/09/06 00:46:17;;;;;;;8.80;6.77;;;13.30;99.90;;;;;;4949251;28;20458;-85
2021/09/06 00:48:43;;;;;;;8.10;7.30;;;13.20;99.90;;;;;;4933956;28;21379;-85
2021/09/06 00:53:48;;;;;;;8.10;7.30;;;13.20;99.90;;;;;;4950849;28;20227;-86
2021/09/06 00:56:14;;;;;;;9.03;7.67;;;13.10;99.90;;;;;;4933971;28;20447;-85
2021/09/06 00:58:40;;;;;;;9.00;8.03;;;13.00;99.90;;;;;;4949099;28;20473;-86
2021/09/06 01:01:08;;;;;;;9.07;8.27;;;13.00;99.90;;;;;;4949080;28;20218;-86
2021/09/06 01:03:33;;;;;;;9.70;7.83;;;13.00;99.90;;;;;;4950309;28;20500;-85
2021/09/06 01:05:59;;;;;;;9.83;7.60;;;13.10;99.90;;;;;;4932488;28;21918;-86
2021/09/06 01:08:27;;;;;;;7.13;6.53;;;13.20;99.90;;;;;;4927239;28;20207;-85
2021/09/06 01:10:53;;;;;;;8.33;7.53;;;13.20;99.90;;;;;;4948191;28;20714;-85
2021/09/06 01:13:19;;;;;;;8.30;7.50;;;13.10;99.90;;;;;;4929447;28;20458;-85
2021/09/06 01:15:44;;;;;;;7.80;7.10;;;13.10;99.90;;;;;;4936330;28;20227;-85
2021/09/06 01:18:10;;;;;;;8.43;7.40;;;13.00;99.90;;;;;;4948011;28;20203;-85
2021/09/06 01:20:36;;;;;;;8.80;8.00;;;12.90;99.90;;;;;;4951234;28;20233;-85
2021/09/06 01:23:02;;;;;;;9.30;8.40;;;12.90;99.90;;;;;;4948837;28;20529;-85
2021/09/06 01:25:27;;;;;;;8.90;8.10;;;13.00;99.90;;;;;;4932783;28;20649;-84
2021/09/06 01:27:53;;;;;;;8.20;7.40;;;12.80;99.90;;;;;;4938232;28;20277;-85
2021/09/06 01:30:19;;;;;;;8.10;7.40;;;12.70;99.90;;;;;;4931971;28;20226;-85
2021/09/06 01:32:44;;;;;;;9.00;8.10;;;12.70;99.90;;;;;;4948286;28;20207;-85
2021/09/06 01:35:10;;;;;;;11.90;7.90;;;12.80;99.90;;;;;;4931376;28;20824;-85
2021/09/06 01:37:37;;;;;;;8.40;7.60;;;12.80;99.90;;;;;;4948271;28;20183;-85
2021/09/06 01:40:04;;;;;;;8.27;7.40;;;12.70;99.90;;;;;;4949038;28;20224;-85
2021/09/06 01:42:30;;;;;;;7.83;7.13;;;12.60;99.90;;;;;;4948984;28;20431;-84
2021/09/06 01:44:55;;;;;;;8.30;7.60;;;12.60;99.90;;;;;;4949167;28;20470;-85
2021/09/06 01:47:21;;;;;;;8.77;7.87;;;12.70;99.90;;;;;;4933265;28;21057;-85
2021/09/06 01:49:47;;;;;;;7.83;7.13;;;12.60;99.90;;;;;;4947958;28;20322;-85
2021/09/06 01:52:13;;;;;;;8.63;7.73;;;12.60;99.90;;;;;;4946911;28;20188;-85
2021/09/06 01:54:42;;;;;;;8.77;7.87;;;12.70;99.90;;;;;;4947925;28;20213;-84
2021/09/06 01:57:10;;;;;;;8.60;7.80;;;12.60;99.90;;;;;;4948630;28;20282;-85
2021/09/06 01:59:41;;;;;;;8.23;7.43;;;12.60;99.90;;;;;;4933679;28;20553;-85
2021/09/06 02:02:10;;;;;;;7.60;6.90;;;12.60;99.90;;;;;;4932652;28;21649;-85
2021/09/06 02:04:36;;;;;;;8.80;7.70;;;12.60;99.90;;;;;;4938689;28;20968;-85
2021/09/06 02:07:01;;;;;;;8.07;7.33;;;12.50;99.90;;;;;;4924424;28;20488;-85
2021/09/06 02:09:37;;;;;;;8.40;7.60;;;12.50;99.90;;;;;;4949727;28;20962;-85
2021/09/06 02:12:03;;;;;;;7.90;7.20;;;12.50;99.90;;;;;;4945591;28;20190;-85
2021/09/06 02:14:32;;;;;;;9.10;8.30;;;12.70;99.90;;;;;;4932043;28;20454;-85
2021/09/06 02:17:00;;;;;;;8.33;7.53;;;12.90;99.90;;;;;;4935546;28;20465;-85
2021/09/06 02:19:26;;;;;;;8.00;7.30;;;13.00;99.90;;;;;;4948614;28;21034;-85
2021/09/06 02:21:52;;;;;;;8.20;7.40;;;13.00;99.90;;;;;;4928625;28;20546;-84
2021/09/06 02:24:21;;;;;;;8.60;7.70;;;13.00;99.90;;;;;;4935112;28;20456;-85
2021/09/06 02:26:47;;;;;;;9.13;8.33;;;12.90;99.90;;;;;;4937163;28;20218;-85
2021/09/06 02:29:13;;;;;;;10.33;9.33;;;12.80;99.90;;;;;;4932110;28;20995;-85
2021/09/06 02:31:40;;;;;;;9.87;8.33;;;12.80;99.90;;;;;;4934123;28;20478;-85
2021/09/06 02:34:06;;;;;;;8.20;7.40;;;12.80;99.90;;;;;;4937328;28;20885;-85
2021/09/06 02:36:37;;;;;;;10.90;7.43;;;12.80;99.90;;;;;;4938159;28;20530;-85
2021/09/06 02:39:04;;;;;;;8.03;7.33;;;12.80;99.90;;;;;;4934759;28;20944;-85
2021/09/06 02:41:30;;;;;;;9.07;7.23;;;12.70;99.90;;;;;;4951968;28;20504;-85
2021/09/06 02:44:00;;;;;;;7.70;7.00;;;12.70;99.90;;;;;;4938920;28;20465;-85
2021/09/06 02:46:28;;;;;;;8.07;7.40;;;12.50;99.90;;;;;;4936523;28;20469;-85
2021/09/06 02:48:54;;;;;;;7.77;7.07;;;12.40;99.90;;;;;;4938870;28;20446;-84
2021/09/06 02:51:21;;;;;;;8.60;7.80;;;12.30;99.90;;;;;;4933124;28;20450;-85
2021/09/06 02:53:47;;;;;;;8.47;7.57;;;12.20;99.90;;;;;;4934964;28;20534;-85
2021/09/06 02:56:16;;;;;;;8.07;7.30;;;12.20;99.90;;;;;;4955986;28;20454;-85
2021/09/06 02:58:55;;;;;;;8.60;7.63;;;12.10;99.90;;;;;;4951327;28;21051;-85
2021/09/06 03:01:21;;;;;;;8.27;7.43;;;12.20;99.90;;;;;;4938275;28;20482;-85
2021/09/06 03:03:50;;;;;;;7.70;7.00;;;12.20;99.90;;;;;;4957820;28;20442;-85
2021/09/06 03:06:21;;;;;;;7.70;7.00;;;12.20;99.90;;;;;;4954568;28;20191;-85
2021/09/06 03:08:47;;;;;;;8.10;7.30;;;12.30;99.90;;;;;;4936967;28;20461;-85
2021/09/06 03:11:13;;;;;;;7.53;6.83;;;12.20;99.90;;;;;;4939837;28;20911;-85
2021/09/06 03:13:45;;;;;;;8.27;7.57;;;12.20;99.90;;;;;;4936422;28;20458;-85
2021/09/06 03:16:21;;;;;;;8.13;7.33;;;12.00;99.90;;;;;;4937538;28;20190;-85
2021/09/06 03:18:51;;;;;;;8.17;7.37;;;11.90;99.90;;;;;;4952867;28;20466;-85
2021/09/06 03:21:17;;;;;;;8.00;7.20;;;11.90;99.90;;;;;;4937140;28;20509;-85
2021/09/06 03:23:48;;;;;;;9.87;7.50;;;11.80;99.90;;;;;;4951083;28;20454;-85
2021/09/06 03:26:17;;;;;;;8.17;7.37;;;11.80;99.90;;;;;;4953896;28;20511;-85
2021/09/06 03:28:43;;;;;;;9.47;8.60;;;11.90;99.90;;;;;;4938473;28;20486;-85
2021/09/06 03:31:09;;;;;;;8.37;7.47;;;12.10;99.90;;;;;;4930889;28;20451;-85
2021/09/06 03:33:35;;;;;;;8.70;7.90;;;12.20;99.90;;;;;;4949148;28;20883;-85
2021/09/06 03:36:04;;;;;;;10.40;9.27;;;12.40;99.90;;;;;;4952284;28;20442;-85
2021/09/06 03:38:30;;;;;;;9.20;8.20;;;12.40;99.90;;;;;;4934119;28;20451;-85
2021/09/06 03:40:56;;;;;;;8.93;8.13;;;12.40;99.90;;;;;;4949848;28;20702;-85
2021/09/06 03:43:27;;;;;;;10.50;8.90;;;12.30;99.90;;;;;;4932917;28;21116;-85
2021/09/06 03:45:53;;;;;;;9.50;8.50;;;12.20;99.90;;;;;;4948532;28;20187;-85
2021/09/06 03:48:22;;;;;;;12.07;9.10;;;12.00;99.90;;;;;;4949474;28;20451;-84
2021/09/06 03:50:48;;;;;;;9.10;8.20;;;12.00;99.90;;;;;;4933940;28;20939;-85
2021/09/06 03:53:14;;;;;;;9.30;8.40;;;12.10;99.90;;;;;;4932921;28;20462;-85
2021/09/06 03:55:40;;;;;;;8.17;7.37;;;12.10;99.90;;;;;;4931156;28;20467;-84
2021/09/06 03:58:06;;;;;;;9.63;8.07;;;12.10;99.90;;;;;;4927354;28;20451;-85
2021/09/06 04:00:33;;;;;;;9.77;8.87;;;12.20;99.90;;;;;;4929817;28;20490;-86
2021/09/06 04:03:01;;;;;;;9.90;8.87;;;12.20;99.90;;;;;;4944079;28;21416;-85
2021/09/06 04:05:39;;;;;;;9.57;8.57;;;12.00;99.90;;;;;;4947080;28;20466;-86
2021/09/06 04:08:06;;;;;;;8.93;8.03;;;12.10;99.90;;;;;;4948403;28;20458;-85
2021/09/06 04:10:32;;;;;;;8.70;7.80;;;12.10;99.90;;;;;;4927425;28;20474;-85
2021/09/06 04:13:01;;;;;;;8.37;7.67;;;12.10;99.90;;;;;;4943790;28;20454;-85
2021/09/06 04:15:30;;;;;;;9.87;8.37;;;12.00;99.90;;;;;;4933798;28;20537;-86
2021/09/06 04:17:56;;;;;;;8.50;7.67;;;11.80;99.90;;;;;;4936532;28;20443;-85
2021/09/06 04:20:22;;;;;;;9.20;8.30;;;11.80;99.90;;;;;;4929820;28;20485;-85
2021/09/06 04:22:48;;;;;;;9.47;8.57;;;11.70;99.90;;;;;;4935985;28;20202;-85
2021/09/06 04:25:19;;;;;;;9.23;8.33;;;11.60;99.90;;;;;;4951197;28;20470;-85
2021/09/06 04:27:45;;;;;;;8.70;7.90;;;11.50;99.90;;;;;;4953167;28;20463;-85
2021/09/06 04:30:12;;;;;;;9.27;8.37;;;11.50;99.90;;;;;;4939457;28;20446;-85
2021/09/06 04:32:39;;;;;;;11.63;8.23;;;11.50;99.90;;;;;;4949553;28;20187;-87
2021/09/06 04:35:06;;;;;;;10.00;7.90;;;11.50;99.90;;;;;;4943342;28;21256;-85
2021/09/06 04:37:31;;;;;;;9.60;8.07;;;11.60;99.90;;;;;;4954305;28;20446;-87
2021/09/06 04:40:02;;;;;;;10.63;9.00;;;11.70;99.90;;;;;;4935847;28;20499;-87
2021/09/06 04:42:28;;;;;;;9.10;8.20;;;11.80;99.90;;;;;;4938906;28;20202;-87
2021/09/06 04:44:57;;;;;;;8.97;7.57;;;11.90;99.90;;;;;;4960091;28;20529;-87
2021/09/06 04:47:42;;;;;;;9.03;7.70;;;12.00;99.90;;;;;;4940089;28;20447;-89
2021/09/06 04:50:08;;;;;;;8.23;7.40;;;11.80;99.90;;;;;;4950785;28;20821;-87
2021/09/06 04:52:37;;;;;;;29.87;27.07;;;11.60;99.90;;;;;;4952515;28;20442;-87
2021/09/06 04:55:03;;;;;;;10.87;9.10;;;11.70;99.90;;;;;;4947454;28;20457;-88
2021/09/06 04:57:32;;;;;;;10.23;8.40;;;11.80;99.90;;;;;;4939418;28;20684;-88
2021/09/06 04:59:59;;;;;;;12.77;9.60;;;11.90;99.90;;;;;;4945380;28;20489;-90
2021/09/06 05:03:08;;;;;;;10.40;9.50;;;12.10;99.90;;;;;;4950040;28;20442;-90
2021/09/06 05:05:34;;;;;;;12.90;10.20;;;12.10;99.90;;;;;;4931373;28;20438;-92
2021/09/06 05:07:59;;;;;;;10.70;9.60;;;12.10;99.90;;;;;;4941075;28;20510;-91
2021/09/06 05:10:25;;;;;;;16.77;10.80;;;12.10;99.90;;;;;;4946232;28;20198;-92
2021/09/06 05:12:51;;;;;;;17.67;11.30;;;12.20;99.90;;;;;;4943252;28;20205;-91
2021/09/06 05:15:21;;;;;;;13.60;10.50;;;12.20;99.90;;;;;;4954659;28;20257;-89
2021/09/06 05:17:47;;;;;;;10.80;9.80;;;12.20;99.90;;;;;;4938142;28;20466;-90
2021/09/06 05:20:13;;;;;;;10.93;9.80;;;12.20;99.90;;;;;;4931253;28;20486;-88
2021/09/06 05:22:41;;;;;;;11.13;9.33;;;12.30;99.90;;;;;;4954751;28;21085;-89
2021/09/06 05:25:08;;;;;;;10.47;9.47;;;12.40;99.90;;;;;;4944344;28;20202;-89
2021/09/06 05:27:39;;;;;;;11.13;10.13;;;12.50;99.90;;;;;;4952651;28;20438;-89
2021/09/06 05:30:09;;;;;;;10.60;9.10;;;12.50;99.90;;;;;;4950935;28;20450;-89
2021/09/06 05:32:35;;;;;;;10.40;9.40;;;12.40;99.90;;;;;;4953096;28;20451;-88
2021/09/06 05:35:05;;;;;;;20.97;10.03;;;12.40;99.90;;;;;;4951373;28;22722;-88
2021/09/06 05:37:34;;;;;;;9.77;8.77;;;12.50;99.90;;;;;;4934752;28;20538;-88
2021/09/06 05:40:00;;;;;;;10.90;9.67;;;12.50;99.90;;;;;;4936949;28;20482;-89
2021/09/06 05:42:29;;;;;;;9.60;8.63;;;12.60;99.90;;;;;;4934289;28;20458;-88
2021/09/06 05:45:01;;;;;;;10.10;9.10;;;12.60;99.90;;;;;;4952215;28;20831;-88
2021/09/06 05:47:32;;;;;;;10.77;9.67;;;12.60;99.90;;;;;;4953227;28;20823;-89
2021/09/06 05:50:01;;;;;;;10.63;9.50;;;12.60;99.90;;;;;;4938427;28;20535;-86
2021/09/06 05:52:27;;;;;;;11.00;8.90;;;12.60;99.90;;;;;;4953563;28;20454;-90
2021/09/06 05:54:53;;;;;;;10.10;9.20;;;12.70;99.90;;;;;;4935954;28;20454;-89
2021/09/06 05:57:23;;;;;;;10.50;9.50;;;12.80;99.90;;;;;;4938207;28;20215;-90
2021/09/06 06:00:20;;;;;;;10.70;9.60;;;12.90;99.90;;;;;;4951932;28;20511;-94
2021/09/06 06:03:35;;;;;;;25.33;22.00;;;13.00;99.90;;;;;;4930539;28;20888;-93
2021/09/06 06:06:01;;;;;;;14.43;10.10;;;13.20;99.90;;;;;;4941988;28;21267;-92
2021/09/06 06:08:27;;;;;;;13.23;9.87;;;13.30;99.90;;;;;;4958039;28;20677;-91
2021/09/06 06:11:05;;;;;;;10.33;9.33;;;13.30;99.90;;;;;;4945253;28;20445;-89
2021/09/06 06:13:37;;;;;;;10.47;9.53;;;13.30;99.90;;;;;;4955790;28;20446;-87
2021/09/06 06:16:06;;;;;;;10.40;9.40;;;13.40;99.90;;;;;;4942521;28;20450;-88
2021/09/06 06:18:33;;;;;;;11.43;10.23;;;13.40;99.90;;;;;;4946731;28;20998;-93
2021/09/06 06:20:59;;;;;;;10.70;9.57;;;13.40;99.90;;;;;;4946622;28;20510;-90
2021/09/06 06:23:29;;;;;;;10.47;9.47;;;13.50;99.90;;;;;;4940254;28;20892;-93
2021/09/06 06:25:55;;;;;;;9.90;9.00;;;13.50;99.90;;;;;;4957008;28;20533;-90
2021/09/06 06:28:20;;;;;;;11.90;10.80;;;13.70;99.90;;;;;;4961338;28;20852;-91
2021/09/06 06:30:47;;;;;;;11.77;10.57;;;13.80;99.90;;;;;;4946004;28;20443;-93
2021/09/06 06:33:13;;;;;;;10.13;9.03;;;14.00;99.90;;;;;;4944919;28;20183;-90
2021/09/06 06:35:39;;;;;;;11.27;10.03;;;14.10;99.90;;;;;;4944585;28;20469;-89
2021/09/06 06:38:08;;;;;;;13.20;9.90;;;14.10;99.90;;;;;;4943295;28;20457;-90
2021/09/06 06:40:37;;;;;;;11.13;10.03;;;14.10;99.90;;;;;;4939535;28;20542;-92
2021/09/06 06:43:07;;;;;;;10.60;9.60;;;14.20;99.90;;;;;;4949012;28;20427;-92
2021/09/06 06:45:33;;;;;;;11.00;10.00;;;14.30;99.90;;;;;;4955638;28;20572;-90
2021/09/06 06:47:59;;;;;;;11.20;10.10;;;14.40;99.90;;;;;;4941691;28;20999;-89
2021/09/06 06:50:25;;;;;;;11.30;10.30;;;14.50;99.90;;;;;;4940978;28;20210;-90
2021/09/06 06:52:54;;;;;;;13.63;10.93;;;14.50;99.90;;;;;;4955712;28;20557;-88
2021/09/06 06:55:21;;;;;;;9.87;8.97;;;14.40;99.90;;;;;;4945804;28;20450;-91
2021/09/06 06:57:47;;;;;;;11.40;10.30;;;14.40;99.90;;;;;;4942275;28;20442;-89
2021/09/06 07:00:16;;;;;;;12.00;9.67;;;14.40;99.90;;;;;;4955983;28;20501;-90
2021/09/06 07:02:42;;;;;;;11.90;10.70;;;14.50;99.90;;;;;;4958879;28;20179;-94
2021/09/06 07:05:14;;;;;;;10.13;9.13;;;14.60;99.90;;;;;;4950539;28;20601;-93
2021/09/06 07:07:40;;;;;;;10.27;9.37;;;14.80;99.90;;;;;;4955999;28;21070;-94
2021/09/06 07:10:13;;;;;;;10.73;9.83;;;15.00;99.90;;;;;;4956998;28;20461;-91
2021/09/06 07:12:39;;;;;;;10.37;9.30;;;15.20;99.90;;;;;;4948617;28;20447;-95
2021/09/06 07:15:07;;;;;;;11.00;10.00;;;15.40;99.90;;;;;;4961904;28;20488;-93
2021/09/06 07:17:33;;;;;;;11.77;10.67;;;15.40;99.90;;;;;;4944299;28;20541;-94
2021/09/06 07:20:00;;;;;;;11.73;10.63;;;15.30;99.90;;;;;;4950603;28;20557;-92
2021/09/06 07:22:31;;;;;;;13.20;10.20;;;15.50;99.90;;;;;;4944156;28;20454;-92
2021/09/06 07:24:58;;;;;;;10.93;9.90;;;15.70;99.90;;;;;;4956903;28;20466;-92
2021/09/06 07:27:24;;;;;;;11.10;10.07;;;15.60;99.90;;;;;;4943339;28;20474;-92
2021/09/06 07:29:50;;;;;;;11.23;10.13;;;15.50;99.90;;;;;;4943854;28;20553;-90
2021/09/06 07:32:19;;;;;;;11.87;10.67;;;15.50;99.90;;;;;;4945530;28;20207;-93
2021/09/06 07:34:45;;;;;;;10.40;9.37;;;15.80;99.90;;;;;;4943276;28;20220;-92
2021/09/06 07:37:11;;;;;;;10.97;9.97;;;15.90;99.90;;;;;;4947368;28;20930;-92
2021/09/06 07:39:38;;;;;;;10.40;9.40;;;16.20;99.90;;;;;;4949650;28;20195;-91
2021/09/06 07:42:07;;;;;;;10.10;9.10;;;16.50;99.90;;;;;;4954107;28;20294;-95
2021/09/06 07:44:33;;;;;;;11.00;9.93;;;16.60;99.90;;;;;;4951916;28;20458;-92
2021/09/06 07:47:01;;;;;;;10.87;9.77;;;16.70;99.90;;;;;;4957336;28;20448;-90
2021/09/06 07:49:27;;;;;;;12.80;11.60;;;16.80;99.90;;;;;;4942421;28;20285;-92
2021/09/06 07:51:53;;;;;;;13.23;11.90;;;16.80;99.90;;;;;;4941939;28;20462;-92
2021/09/06 07:54:28;;;;;;;10.87;9.70;;;17.00;99.90;;;;;;4937654;28;20196;-90
2021/09/06 07:56:55;;;;;;;12.47;11.27;;;17.10;99.90;;;;;;4945615;28;20194;-90
2021/09/06 07:59:22;;;;;;;10.93;9.80;;;17.00;99.90;;;;;;4956406;28;20454;-94
2021/09/06 08:01:48;;;;;;;11.00;10.00;;;17.20;99.90;;;;;;4945933;28;20482;-94
2021/09/06 08:04:17;;;;;;;10.77;9.67;;;17.40;99.90;;;;;;4957113;28;21264;-89
2021/09/06 08:06:45;;;;;;;10.10;9.10;;;17.70;99.90;;;;;;4957675;28;20458;-95
2021/09/06 08:09:14;;;;;;;10.20;9.30;;;17.80;99.90;;;;;;4942909;28;20529;-94
2021/09/06 08:11:45;;;;;;;9.50;8.53;;;17.70;99.90;;;;;;4943006;28;20968;-91
2021/09/06 08:14:11;;;;;;;9.30;8.40;;;17.80;99.90;;;;;;4958801;28;20604;-91
2021/09/06 08:16:43;;;;;;;9.93;9.03;;;18.00;99.90;;;;;;4941835;28;20534;-89
2021/09/06 08:19:09;;;;;;;9.87;8.97;;;18.10;99.90;;;;;;4938566;28;20194;-90
2021/09/06 08:21:35;;;;;;;9.10;8.20;;;18.20;99.90;;;;;;4955467;28;20490;-89
2021/09/06 08:24:01;;;;;;;9.07;8.27;;;18.40;99.90;;;;;;4936124;28;20521;-88
2021/09/06 08:26:30;;;;;;;9.40;8.50;;;18.60;99.90;;;;;;4939703;28;20198;-89
2021/09/06 08:28:56;;;;;;;15.97;9.47;;;18.60;99.90;;;;;;4940819;29;20445;-89
2021/09/06 08:31:22;;;;;;;9.50;8.60;;;18.70;99.90;;;;;;4939938;28;20451;-89
2021/09/06 08:33:48;;;;;;;10.80;8.87;;;19.10;99.90;;;;;;4939288;28;20187;-89
2021/09/06 08:36:17;;;;;;;12.23;8.83;;;19.20;99.90;;;;;;4935040;28;20462;-89
2021/09/06 08:38:43;;;;;;;8.73;7.93;;;19.40;99.90;;;;;;4942865;28;20442;-92
2021/09/06 08:41:09;;;;;;;8.57;7.77;;;19.60;99.90;;;;;;4935654;28;20481;-89
2021/09/06 08:43:38;;;;;;;8.20;7.40;;;19.60;99.90;;;;;;4940180;28;20199;-91
2021/09/06 08:46:04;;;;;;;8.20;7.50;;;19.60;99.90;;;;;;4950420;28;21080;-92
2021/09/06 08:48:33;;;;;;;8.80;8.00;;;19.90;99.90;;;;;;4939670;28;20633;-89
2021/09/06 08:50:58;;;;;;;8.17;7.47;;;20.30;99.90;;;;;;4950763;28;20449;-89
2021/09/06 08:53:24;;;;;;;8.60;7.90;;;20.50;99.90;;;;;;4938317;28;20809;-90
2021/09/06 08:55:53;;;;;;;7.90;7.10;;;20.70;99.90;;;;;;4957489;28;20553;-89
2021/09/06 08:58:18;;;;;;;9.23;8.43;;;20.90;99.90;;;;;;4939952;28;20202;-91
2021/09/06 09:00:46;;;;;;;8.77;7.83;;;20.60;99.90;;;;;;4938244;28;20482;-90
2021/09/06 09:03:13;;;;;;;8.20;7.20;;;20.70;99.90;;;;;;4941119;28;20551;-89
2021/09/06 09:06:01;;;;;;;7.80;7.00;;;21.00;99.90;;;;;;4937605;28;21009;-90
2021/09/06 09:08:33;;;;;;;6.80;6.10;;;21.30;99.90;;;;;;4954729;28;20458;-88
2021/09/06 09:11:04;;;;;;;7.93;7.23;;;21.50;98.90;;;;;;4960911;28;20450;-90
2021/09/06 09:13:40;;;;;;;7.90;7.27;;;21.70;99.90;;;;;;4954421;28;20447;-91
2021/09/06 09:16:08;;;;;;;7.53;6.33;;;22.00;99.90;;;;;;4938465;28;20498;-90
2021/09/06 09:18:34;;;;;;;7.53;6.93;;;22.30;99.90;;;;;;4942579;28;20453;-88
2021/09/06 09:21:05;;;;;;;6.97;6.37;;;22.40;98.10;;;;;;4939975;28;20626;-90
2021/09/06 09:23:44;;;;;;;7.40;6.70;;;22.50;98.90;;;;;;4933670;28;21170;-88
2021/09/06 09:26:11;;;;;;;9.00;7.00;;;22.60;99.10;;;;;;4953094;28;20533;-89
2021/09/06 09:28:39;;;;;;;7.60;7.00;;;22.80;97.10;;;;;;4951625;28;20446;-89
2021/09/06 09:31:18;;;;;;;7.60;6.90;;;22.90;97.80;;;;;;4952144;28;20887;-90
2021/09/06 09:33:46;;;;;;;6.57;5.97;;;22.90;98.20;;;;;;4953844;28;20442;-89
2021/09/06 09:36:13;;;;;;;7.40;6.80;;;22.90;97.20;;;;;;4937705;28;20454;-90
2021/09/06 09:38:39;;;;;;;7.27;6.67;;;22.90;98.90;;;;;;4933877;28;20451;-90
2021/09/06 09:41:16;;;;;;;8.27;7.50;;;23.10;97.20;;;;;;4936914;29;20758;-91
2021/09/06 09:43:44;;;;;;;7.67;7.07;;;23.40;99.60;;;;;;4956246;28;20453;-90
2021/09/06 09:46:10;;;;;;;8.50;7.70;;;23.60;97.80;;;;;;4938855;28;21110;-88
2021/09/06 09:48:35;;;;;;;9.70;7.13;;;23.40;97.60;;;;;;4940958;28;21120;-88
2021/09/06 09:51:02;;;;;;;7.87;7.17;;;23.60;97.40;;;;;;4941344;28;20187;-89
2021/09/06 09:53:28;;;;;;;7.93;7.13;;;23.50;97.00;;;;;;4942812;28;20614;-86
2021/09/06 09:55:54;;;;;;;8.70;7.87;;;23.70;96.70;;;;;;4939893;28;20447;-87
2021/09/06 09:58:20;;;;;;;8.50;7.60;;;23.80;97.20;;;;;;4938544;28;20455;-87
2021/09/06 10:00:53;;;;;;;8.07;7.30;;;23.80;96.30;;;;;;4956238;28;20563;-88
2021/09/06 10:03:22;;;;;;;8.50;7.70;;;24.10;96.40;;;;;;4950859;28;20190;-87
2021/09/06 10:05:50;;;;;;;8.20;7.53;;;24.30;96.00;;;;;;4933759;28;20454;-86
2021/09/06 10:08:16;;;;;;;7.77;7.07;;;24.20;95.70;;;;;;4936322;28;20494;-88
2021/09/06 10:10:42;;;;;;;8.00;7.30;;;24.20;95.90;;;;;;4943026;28;20462;-89
2021/09/06 10:13:17;;;;;;;8.27;7.43;;;24.50;95.60;;;;;;4937734;28;20457;-87
2021/09/06 10:15:56;;;;;;;8.87;8.10;;;24.60;96.00;;;;;;4936585;28;20190;-87
2021/09/06 10:18:23;;;;;;;8.53;7.73;;;24.50;95.90;;;;;;4937516;28;20509;-88
2021/09/06 10:20:51;;;;;;;12.07;8.50;;;24.50;96.60;;;;;;4953632;28;20490;-90
2021/09/06 10:23:25;;;;;;;12.60;8.13;;;24.70;95.70;;;;;;4939695;28;20564;-91
2021/09/06 10:25:52;;;;;;;8.47;7.60;;;24.80;95.30;;;;;;4952175;28;20466;-90
2021/09/06 10:28:18;;;;;;;9.10;7.50;;;25.00;94.40;;;;;;4951197;28;20451;-89
2021/09/06 10:30:51;;;;;;;8.03;7.33;;;25.00;94.40;;;;;;4951406;28;20549;-89
2021/09/06 10:33:47;;;;;;;8.43;7.83;;;25.00;94.50;;;;;;4940144;28;20470;-90
2021/09/06 10:36:18;;;;;;;8.43;7.60;;;25.00;94.50;;;;;;4952577;28;20458;-89
2021/09/06 10:39:09;;;;;;;8.80;8.03;;;25.40;95.30;;;;;;4939253;28;20522;-91
2021/09/06 10:41:47;;;;;;;7.60;7.00;;;25.40;95.90;;;;;;4957277;28;20482;-88
2021/09/06 10:44:13;;;;;;;8.67;7.97;;;25.30;93.40;;;;;;4944648;28;20455;-88
2021/09/06 10:46:39;;;;;;;8.80;8.00;;;25.40;92.80;;;;;;4935637;28;20547;-89
2021/09/06 10:49:07;;;;;;;8.63;7.90;;;25.40;92.60;;;;;;4951764;28;20571;-90
2021/09/06 10:51:34;;;;;;;9.60;8.60;;;25.30;93.70;;;;;;4954218;28;20458;-89
2021/09/06 10:54:06;;;;;;;8.30;7.70;;;25.50;93.80;;;;;;4939163;28;20191;-90
2021/09/06 10:56:32;;;;;;;8.43;7.73;;;25.60;93.90;;;;;;4951792;28;20823;-89
2021/09/06 10:58:59;;;;;;;9.83;8.83;;;25.80;91.90;;;;;;4951415;28;20799;-91
2021/09/06 11:01:25;;;;;;;9.27;8.20;;;25.90;93.00;;;;;;4936628;28;21090;-88
2021/09/06 11:03:52;;;;;;;8.93;8.20;;;26.20;92.50;;;;;;4937008;28;20442;-88
2021/09/06 11:06:28;;;;;;;9.37;8.57;;;26.50;91.00;;;;;;4939814;28;20225;-89
2021/09/06 11:08:54;;;;;;;8.50;7.80;;;26.60;92.50;;;;;;4952418;28;20454;-88
2021/09/06 11:11:19;;;;;;;8.80;8.00;;;26.60;85.10;;;;;;4936199;28;20986;-87
2021/09/06 11:13:47;;;;;;;8.47;7.77;;;26.70;91.60;;;;;;4936650;28;20690;-86
2021/09/06 11:16:16;;;;;;;8.87;8.13;;;26.40;90.20;;;;;;4936863;28;20562;-88
2021/09/06 11:18:47;;;;;;;8.80;8.10;;;26.40;90.70;;;;;;4937730;28;20454;-88
2021/09/06 11:21:16;;;;;;;8.40;7.50;;;26.60;91.30;;;;;;4951691;28;20489;-90
2021/09/06 11:23:44;;;;;;;10.20;9.00;;;26.70;90.80;;;;;;4952390;28;20482;-87
2021/09/06 11:26:27;;;;;;;8.93;8.13;;;26.90;86.60;;;;;;4950835;28;20450;-88
2021/09/06 11:28:53;;;;;;;8.80;7.93;;;27.10;81.30;;;;;;4952554;28;20463;-88
2021/09/06 11:31:21;;;;;;;9.00;8.30;;;27.20;86.60;;;;;;4934451;28;20459;-88
2021/09/06 11:33:56;;;;;;;9.83;8.93;;;27.00;82.60;;;;;;4937568;28;20541;-91
2021/09/06 11:36:21;;;;;;;8.30;7.50;;;26.50;85.20;;;;;;4937127;28;20445;-89
2021/09/06 11:38:49;;;;;;;8.50;7.83;;;26.70;87.00;;;;;;4937756;28;20454;-88
2021/09/06 11:41:15;;;;;;;8.23;7.53;;;27.10;81.90;;;;;;4936179;28;20546;-91
2021/09/06 11:43:49;;;;;;;11.17;8.03;;;27.20;81.90;;;;;;4935115;28;20739;-89
2021/09/06 11:46:16;;;;;;;7.57;6.97;;;27.10;76.00;;;;;;4953090;28;21063;-90
2021/09/06 11:48:48;;;;;;;7.67;6.97;;;27.10;75.50;;;;;;4958427;28;20964;-90
2021/09/06 11:51:15;;;;;;;7.70;7.13;;;27.10;75.50;;;;;;4936577;28;20454;-90
2021/09/06 11:53:41;;;;;;;7.10;6.50;;;27.00;77.50;;;;;;4953612;28;20460;-90
2021/09/06 11:56:14;;;;;;;7.33;6.73;;;27.10;73.70;;;;;;4948031;28;20607;-89
2021/09/06 11:58:45;;;;;;;7.00;6.40;;;27.00;75.80;;;;;;4932439;28;20486;-90
2021/09/06 12:01:15;;;;;;;7.27;6.57;;;27.00;76.90;;;;;;4949909;28;20482;-91
2021/09/06 12:03:45;;;;;;;7.23;6.53;;;26.90;78.20;;;;;;4939348;28;20447;-91
2021/09/06 12:06:14;;;;;;;7.30;6.70;;;27.30;75.70;;;;;;4951818;28;20455;-89
2021/09/06 12:09:11;;;;;;;7.30;6.70;;;27.40;74.60;;;;;;4932205;28;20462;-91
2021/09/06 12:11:40;;;;;;;7.80;7.10;;;27.40;75.20;;;;;;4928877;28;20458;-91
2021/09/06 12:14:08;;;;;;;7.23;6.53;;;27.40;73.10;;;;;;4952900;28;20983;-89
2021/09/06 12:16:36;;;;;;;7.80;6.90;;;27.50;67.10;;;;;;4950683;28;21045;-93
2021/09/06 12:19:14;;;;;;;6.93;6.40;;;27.30;64.80;;;;;;4950538;28;20555;-91
2021/09/06 12:21:43;;;;;;;7.63;6.93;;;27.20;73.40;;;;;;4951113;28;20506;-90
2021/09/06 12:24:09;;;;;;;7.10;6.40;;;27.20;64.10;;;;;;4935805;28;20873;-88
2021/09/06 12:26:49;;;;;;;6.90;6.30;;;27.00;64.30;;;;;;4934501;28;20449;-91
2021/09/06 12:29:44;;;;;;;7.17;6.47;;;27.10;64.30;;;;;;4934018;28;20191;-89
2021/09/06 12:32:19;;;;;;;7.23;6.63;;;27.10;65.20;;;;;;4930074;28;20538;-91
2021/09/06 12:34:45;;;;;;;6.60;6.10;;;27.10;63.60;;;;;;4938573;28;20450;-90
2021/09/06 12:37:15;;;;;;;7.30;6.70;;;27.10;64.50;;;;;;4932986;28;20463;-93
2021/09/06 12:39:40;;;;;;;7.17;6.60;;;27.50;71.90;;;;;;4949698;28;20458;-92
2021/09/06 12:42:07;;;;;;;6.53;5.93;;;27.80;62.00;;;;;;4951155;28;20815;-92
2021/09/06 12:44:33;;;;;;;6.70;6.20;;;27.20;60.40;;;;;;4934336;28;20270;-91
2021/09/06 12:46:59;;;;;;;7.37;6.67;;;27.20;67.30;;;;;;4930706;28;21380;-91
2021/09/06 12:49:27;;;;;;;7.00;6.40;;;27.70;66.90;;;;;;4950066;28;20482;-91
2021/09/06 12:51:55;;;;;;;6.80;6.30;;;27.80;63.80;;;;;;4934011;28;20447;-91
2021/09/06 12:54:21;;;;;;;7.03;6.53;;;27.50;67.10;;;;;;4949564;28;20450;-91